Terminal Aerodrome Forecast
Issued by NWS

Home | Current Version | Previous Version | Text Only | Print | Product List | Glossary On
Versions: 1 2 3 4 5 6 7 8 9 10 11 12 13 14 15 16 17 18 19 20 21 22 23 24 25 26 27 28 29 30
080
FTUS46 KLOX 222205 AAC
TAFWJF
TAF AMD
KWJF 222205Z 2222/2318 05004KT 6SM -RA BR FEW019 BKN025 OVC029
     FM230000 22022G32KT 2SM +RA BR BKN015 OVC035
     FM230500 21015G25KT 4SM -RA BKN012 OVC025
     FM230900 21022KT 4SM -SHRA BR BKN015 BKN035 PROB30 2309/2312
      4SM -TSRA BKN025CB=

USA.gov is the U.S. government's official web portal to all federal, state and local government web resources and services.